sensor_id;sensor_type;location;lat;lon;timestamp;temperature;humidity
14727;DHT22;7454;51.256;8.176;2024-02-14T00:00:13;7.10;79.00
14727;DHT22;7454;51.256;8.176;2024-02-14T00:02:39;7.10;79.00
14727;DHT22;7454;51.256;8.176;2024-02-14T00:05:14;7.10;79.00
14727;DHT22;7454;51.256;8.176;2024-02-14T00:07:41;7.20;79.10
14727;DHT22;7454;51.256;8.176;2024-02-14T00:10:07;7.20;79.10
14727;DHT22;7454;51.256;8.176;2024-02-14T00:12:33;7.20;79.00
14727;DHT22;7454;51.256;8.176;2024-02-14T00:14:59;7.20;79.10
14727;DHT22;7454;51.256;8.176;2024-02-14T00:17:25;7.10;79.00
14727;DHT22;7454;51.256;8.176;2024-02-14T00:19:50;7.20;79.10
14727;DHT22;7454;51.256;8.176;2024-02-14T00:22:16;7.20;79.10
14727;DHT22;7454;51.256;8.176;2024-02-14T00:24:42;7.20;79.10
14727;DHT22;7454;51.256;8.176;2024-02-14T00:27:08;7.20;79.20
14727;DHT22;7454;51.256;8.176;2024-02-14T00:29:34;7.20;79.20
14727;DHT22;7454;51.256;8.176;2024-02-14T00:32:00;7.20;79.30
14727;DHT22;7454;51.256;8.176;2024-02-14T00:34:26;7.20;79.20
14727;DHT22;7454;51.256;8.176;2024-02-14T00:36:52;7.20;79.30
14727;DHT22;7454;51.256;8.176;2024-02-14T00:39:18;7.20;79.30
14727;DHT22;7454;51.256;8.176;2024-02-14T00:41:45;7.20;79.30
14727;DHT22;7454;51.256;8.176;2024-02-14T00:44:13;7.20;79.40
14727;DHT22;7454;51.256;8.176;2024-02-14T00:46:42;7.20;79.30
14727;DHT22;7454;51.256;8.176;2024-02-14T00:49:09;7.20;79.40
14727;DHT22;7454;51.256;8.176;2024-02-14T00:51:35;7.20;79.40
14727;DHT22;7454;51.256;8.176;2024-02-14T00:54:04;7.20;79.40
14727;DHT22;7454;51.256;8.176;2024-02-14T00:56:29;7.20;79.40
14727;DHT22;7454;51.256;8.176;2024-02-14T00:58:55;7.20;79.40
14727;DHT22;7454;51.256;8.176;2024-02-14T01:01:22;7.10;79.40
14727;DHT22;7454;51.256;8.176;2024-02-14T01:03:48;7.10;79.50
14727;DHT22;7454;51.256;8.176;2024-02-14T01:06:14;7.10;79.60
14727;DHT22;7454;51.256;8.176;2024-02-14T01:08:41;7.10;79.50
14727;DHT22;7454;51.256;8.176;2024-02-14T01:11:07;7.20;79.50
14727;DHT22;7454;51.256;8.176;2024-02-14T01:13:33;7.20;79.50
14727;DHT22;7454;51.256;8.176;2024-02-14T01:15:59;7.20;79.50
14727;DHT22;7454;51.256;8.176;2024-02-14T01:18:25;7.20;79.50
14727;DHT22;7454;51.256;8.176;2024-02-14T01:20:50;7.20;79.50
14727;DHT22;7454;51.256;8.176;2024-02-14T01:23:16;7.20;79.50
14727;DHT22;7454;51.256;8.176;2024-02-14T01:25:42;7.20;79.50
14727;DHT22;7454;51.256;8.176;2024-02-14T01:28:10;7.20;79.50
14727;DHT22;7454;51.256;8.176;2024-02-14T01:30:35;7.20;79.50
14727;DHT22;7454;51.256;8.176;2024-02-14T01:33:01;7.20;79.50
14727;DHT22;7454;51.256;8.176;2024-02-14T01:35:29;7.20;79.50
14727;DHT22;7454;51.256;8.176;2024-02-14T01:37:55;7.20;79.50
14727;DHT22;7454;51.256;8.176;2024-02-14T01:40:21;7.30;79.50
14727;DHT22;7454;51.256;8.176;2024-02-14T01:42:47;7.20;79.40
14727;DHT22;7454;51.256;8.176;2024-02-14T01:45:13;7.20;79.40
14727;DHT22;7454;51.256;8.176;2024-02-14T01:47:38;7.30;79.50
14727;DHT22;7454;51.256;8.176;2024-02-14T01:50:07;7.30;79.50
14727;DHT22;7454;51.256;8.176;2024-02-14T01:52:40;7.30;79.50
14727;DHT22;7454;51.256;8.176;2024-02-14T01:55:06;7.30;79.50
14727;DHT22;7454;51.256;8.176;2024-02-14T01:57:33;7.30;79.60
14727;DHT22;7454;51.256;8.176;2024-02-14T01:59:59;7.30;79.60
14727;DHT22;7454;51.256;8.176;2024-02-14T02:02:37;7.30;79.80
14727;DHT22;7454;51.256;8.176;2024-02-14T02:05:07;7.30;80.00
14727;DHT22;7454;51.256;8.176;2024-02-14T02:07:33;7.30;80.10
14727;DHT22;7454;51.256;8.176;2024-02-14T02:09:59;7.30;80.10
14727;DHT22;7454;51.256;8.176;2024-02-14T02:12:25;7.30;80.10
14727;DHT22;7454;51.256;8.176;2024-02-14T02:14:53;7.30;80.00
14727;DHT22;7454;51.256;8.176;2024-02-14T02:17:19;7.30;80.00
14727;DHT22;7454;51.256;8.176;2024-02-14T02:19:44;7.20;80.00
14727;DHT22;7454;51.256;8.176;2024-02-14T02:22:10;7.20;80.00
14727;DHT22;7454;51.256;8.176;2024-02-14T02:24:36;7.20;80.00
14727;DHT22;7454;51.256;8.176;2024-02-14T02:27:02;7.20;80.00
14727;DHT22;7454;51.256;8.176;2024-02-14T02:29:28;7.20;80.10
14727;DHT22;7454;51.256;8.176;2024-02-14T02:31:54;7.20;80.10
14727;DHT22;7454;51.256;8.176;2024-02-14T02:34:20;7.30;80.10
14727;DHT22;7454;51.256;8.176;2024-02-14T02:36:46;7.30;80.10
14727;DHT22;7454;51.256;8.176;2024-02-14T02:39:12;7.30;80.20
14727;DHT22;7454;51.256;8.176;2024-02-14T02:41:39;7.30;80.10
14727;DHT22;7454;51.256;8.176;2024-02-14T02:44:05;7.30;80.10
14727;DHT22;7454;51.256;8.176;2024-02-14T02:46:32;7.30;80.20
14727;DHT22;7454;51.256;8.176;2024-02-14T02:48:58;7.40;80.10
14727;DHT22;7454;51.256;8.176;2024-02-14T02:51:24;7.30;80.10
14727;DHT22;7454;51.256;8.176;2024-02-14T02:53:50;7.30;80.10
14727;DHT22;7454;51.256;8.176;2024-02-14T02:56:17;7.40;80.20
14727;DHT22;7454;51.256;8.176;2024-02-14T02:58:44;7.40;80.20
14727;DHT22;7454;51.256;8.176;2024-02-14T03:01:10;7.40;80.20
14727;DHT22;7454;51.256;8.176;2024-02-14T03:03:37;7.40;80.20
14727;DHT22;7454;51.256;8.176;2024-02-14T03:06:04;7.30;80.20
14727;DHT22;7454;51.256;8.176;2024-02-14T03:08:30;7.40;80.30
14727;DHT22;7454;51.256;8.176;2024-02-14T03:11:06;7.40;80.30
14727;DHT22;7454;51.256;8.176;2024-02-14T03:13:33;7.40;80.40
14727;DHT22;7454;51.256;8.176;2024-02-14T03:15:58;7.40;80.40
14727;DHT22;7454;51.256;8.176;2024-02-14T03:18:24;7.40;80.40
14727;DHT22;7454;51.256;8.176;2024-02-14T03:20:50;7.40;80.40
14727;DHT22;7454;51.256;8.176;2024-02-14T03:23:16;7.40;80.40
14727;DHT22;7454;51.256;8.176;2024-02-14T03:25:42;7.40;80.40
14727;DHT22;7454;51.256;8.176;2024-02-14T03:28:08;7.40;80.40
14727;DHT22;7454;51.256;8.176;2024-02-14T03:30:35;7.40;80.40
14727;DHT22;7454;51.256;8.176;2024-02-14T03:33:02;7.40;80.50
14727;DHT22;7454;51.256;8.176;2024-02-14T03:35:28;7.40;80.50
14727;DHT22;7454;51.256;8.176;2024-02-14T03:37:54;7.40;80.40
14727;DHT22;7454;51.256;8.176;2024-02-14T03:40:19;7.40;80.50
14727;DHT22;7454;51.256;8.176;2024-02-14T03:42:48;7.40;80.50
14727;DHT22;7454;51.256;8.176;2024-02-14T03:45:14;7.40;80.40
14727;DHT22;7454;51.256;8.176;2024-02-14T03:47:40;7.40;80.50
14727;DHT22;7454;51.256;8.176;2024-02-14T03:50:07;7.40;80.50
14727;DHT22;7454;51.256;8.176;2024-02-14T03:52:33;7.40;80.60
14727;DHT22;7454;51.256;8.176;2024-02-14T03:54:59;7.40;80.70
14727;DHT22;7454;51.256;8.176;2024-02-14T03:57:25;7.40;80.80
14727;DHT22;7454;51.256;8.176;2024-02-14T03:59:58;7.40;80.90
14727;DHT22;7454;51.256;8.176;2024-02-14T04:02:26;7.40;80.90
14727;DHT22;7454;51.256;8.176;2024-02-14T04:04:53;7.50;81.00
14727;DHT22;7454;51.256;8.176;2024-02-14T04:07:19;7.40;81.00
14727;DHT22;7454;51.256;8.176;2024-02-14T04:09:45;7.40;81.10
14727;DHT22;7454;51.256;8.176;2024-02-14T04:12:10;7.50;81.20
14727;DHT22;7454;51.256;8.176;2024-02-14T04:14:37;7.50;81.20
14727;DHT22;7454;51.256;8.176;2024-02-14T04:17:04;7.40;81.30
14727;DHT22;7454;51.256;8.176;2024-02-14T04:19:30;7.50;81.40
14727;DHT22;7454;51.256;8.176;2024-02-14T04:21:55;7.50;81.30
14727;DHT22;7454;51.256;8.176;2024-02-14T04:24:21;7.50;81.30
14727;DHT22;7454;51.256;8.176;2024-02-14T04:26:47;7.50;81.30
14727;DHT22;7454;51.256;8.176;2024-02-14T04:29:15;7.50;81.30
14727;DHT22;7454;51.256;8.176;2024-02-14T04:31:40;7.50;81.30
14727;DHT22;7454;51.256;8.176;2024-02-14T04:34:08;7.50;81.30
14727;DHT22;7454;51.256;8.176;2024-02-14T04:36:35;7.50;81.30
14727;DHT22;7454;51.256;8.176;2024-02-14T04:39:02;7.50;81.30
14727;DHT22;7454;51.256;8.176;2024-02-14T04:41:28;7.50;81.40
14727;DHT22;7454;51.256;8.176;2024-02-14T04:43:54;7.50;81.40
14727;DHT22;7454;51.256;8.176;2024-02-14T04:46:20;7.50;81.40
14727;DHT22;7454;51.256;8.176;2024-02-14T04:48:47;7.60;81.40
14727;DHT22;7454;51.256;8.176;2024-02-14T04:51:13;7.60;81.50
14727;DHT22;7454;51.256;8.176;2024-02-14T04:53:39;7.60;81.50
14727;DHT22;7454;51.256;8.176;2024-02-14T04:56:05;7.60;81.50
14727;DHT22;7454;51.256;8.176;2024-02-14T04:58:31;7.60;81.60
14727;DHT22;7454;51.256;8.176;2024-02-14T05:00:56;7.60;81.60
14727;DHT22;7454;51.256;8.176;2024-02-14T05:03:22;7.70;81.80
14727;DHT22;7454;51.256;8.176;2024-02-14T05:05:49;7.70;81.70
14727;DHT22;7454;51.256;8.176;2024-02-14T05:08:16;7.70;81.70
14727;DHT22;7454;51.256;8.176;2024-02-14T05:10:41;7.70;81.80
14727;DHT22;7454;51.256;8.176;2024-02-14T05:13:07;7.70;81.70
14727;DHT22;7454;51.256;8.176;2024-02-14T05:15:33;7.70;81.70
14727;DHT22;7454;51.256;8.176;2024-02-14T05:18:00;7.70;81.70
14727;DHT22;7454;51.256;8.176;2024-02-14T05:20:26;7.80;81.80
14727;DHT22;7454;51.256;8.176;2024-02-14T05:22:52;7.80;81.80
14727;DHT22;7454;51.256;8.176;2024-02-14T05:25:18;7.80;81.80
14727;DHT22;7454;51.256;8.176;2024-02-14T05:27:44;7.80;81.80
14727;DHT22;7454;51.256;8.176;2024-02-14T05:30:12;7.80;81.90
14727;DHT22;7454;51.256;8.176;2024-02-14T05:32:38;7.80;81.90
14727;DHT22;7454;51.256;8.176;2024-02-14T05:35:05;7.90;81.90
14727;DHT22;7454;51.256;8.176;2024-02-14T05:37:31;7.80;81.90
14727;DHT22;7454;51.256;8.176;2024-02-14T05:39:57;7.80;82.00
14727;DHT22;7454;51.256;8.176;2024-02-14T05:42:23;7.80;82.10
14727;DHT22;7454;51.256;8.176;2024-02-14T05:44:48;7.80;82.20
14727;DHT22;7454;51.256;8.176;2024-02-14T05:47:14;7.80;82.20
14727;DHT22;7454;51.256;8.176;2024-02-14T05:49:40;7.90;82.40
14727;DHT22;7454;51.256;8.176;2024-02-14T05:52:06;7.90;82.50
14727;DHT22;7454;51.256;8.176;2024-02-14T05:54:32;7.90;82.60
14727;DHT22;7454;51.256;8.176;2024-02-14T05:56:58;7.90;82.50
14727;DHT22;7454;51.256;8.176;2024-02-14T05:59:24;7.90;82.50
14727;DHT22;7454;51.256;8.176;2024-02-14T06:01:49;7.90;82.60
14727;DHT22;7454;51.256;8.176;2024-02-14T06:04:15;7.90;82.60
14727;DHT22;7454;51.256;8.176;2024-02-14T06:06:41;7.90;82.60
14727;DHT22;7454;51.256;8.176;2024-02-14T06:09:06;7.90;82.70
14727;DHT22;7454;51.256;8.176;2024-02-14T06:11:35;7.90;82.90
14727;DHT22;7454;51.256;8.176;2024-02-14T06:14:07;7.90;83.00
14727;DHT22;7454;51.256;8.176;2024-02-14T06:16:34;7.90;83.00
14727;DHT22;7454;51.256;8.176;2024-02-14T06:19:00;8.00;83.20
14727;DHT22;7454;51.256;8.176;2024-02-14T06:21:26;8.00;83.20
14727;DHT22;7454;51.256;8.176;2024-02-14T06:23:52;8.00;83.10
14727;DHT22;7454;51.256;8.176;2024-02-14T06:26:18;8.00;83.00
14727;DHT22;7454;51.256;8.176;2024-02-14T06:28:44;8.00;83.00
14727;DHT22;7454;51.256;8.176;2024-02-14T06:31:10;8.00;83.00
14727;DHT22;7454;51.256;8.176;2024-02-14T06:33:36;8.00;83.10
14727;DHT22;7454;51.256;8.176;2024-02-14T06:36:02;8.10;83.10
14727;DHT22;7454;51.256;8.176;2024-02-14T06:38:28;8.10;83.10
14727;DHT22;7454;51.256;8.176;2024-02-14T06:40:54;8.10;83.00
14727;DHT22;7454;51.256;8.176;2024-02-14T06:43:21;8.10;83.10
14727;DHT22;7454;51.256;8.176;2024-02-14T06:45:46;8.10;83.00
14727;DHT22;7454;51.256;8.176;2024-02-14T06:48:12;8.20;83.20
14727;DHT22;7454;51.256;8.176;2024-02-14T06:50:38;8.10;83.20
14727;DHT22;7454;51.256;8.176;2024-02-14T06:53:04;8.10;83.40
14727;DHT22;7454;51.256;8.176;2024-02-14T06:55:30;8.20;83.60
14727;DHT22;7454;51.256;8.176;2024-02-14T06:57:57;8.10;83.60
14727;DHT22;7454;51.256;8.176;2024-02-14T07:00:24;8.20;83.80
14727;DHT22;7454;51.256;8.176;2024-02-14T07:02:51;8.10;83.70
14727;DHT22;7454;51.256;8.176;2024-02-14T07:05:16;8.10;83.70
14727;DHT22;7454;51.256;8.176;2024-02-14T07:07:43;8.20;83.90
14727;DHT22;7454;51.256;8.176;2024-02-14T07:10:09;8.20;83.90
14727;DHT22;7454;51.256;8.176;2024-02-14T07:12:35;8.20;83.80
14727;DHT22;7454;51.256;8.176;2024-02-14T07:15:04;8.20;83.80
14727;DHT22;7454;51.256;8.176;2024-02-14T07:17:30;8.20;83.90
14727;DHT22;7454;51.256;8.176;2024-02-14T07:19:56;8.20;84.00
14727;DHT22;7454;51.256;8.176;2024-02-14T07:22:22;8.30;84.00
14727;DHT22;7454;51.256;8.176;2024-02-14T07:24:47;8.30;84.10
14727;DHT22;7454;51.256;8.176;2024-02-14T07:27:14;8.30;84.10
14727;DHT22;7454;51.256;8.176;2024-02-14T07:29:40;8.30;84.00
14727;DHT22;7454;51.256;8.176;2024-02-14T07:32:06;8.30;84.10
14727;DHT22;7454;51.256;8.176;2024-02-14T07:34:32;8.30;84.10
14727;DHT22;7454;51.256;8.176;2024-02-14T07:36:58;8.30;84.20
14727;DHT22;7454;51.256;8.176;2024-02-14T07:39:23;8.40;84.10
14727;DHT22;7454;51.256;8.176;2024-02-14T07:41:50;8.40;84.20
14727;DHT22;7454;51.256;8.176;2024-02-14T07:44:16;8.50;84.30
14727;DHT22;7454;51.256;8.176;2024-02-14T07:46:42;8.50;84.30
14727;DHT22;7454;51.256;8.176;2024-02-14T07:49:07;8.50;84.50
14727;DHT22;7454;51.256;8.176;2024-02-14T07:51:34;8.50;84.60
14727;DHT22;7454;51.256;8.176;2024-02-14T07:54:02;8.50;84.60
14727;DHT22;7454;51.256;8.176;2024-02-14T07:56:31;8.60;84.60
14727;DHT22;7454;51.256;8.176;2024-02-14T07:58:57;8.60;84.60
14727;DHT22;7454;51.256;8.176;2024-02-14T08:01:23;8.60;84.40
14727;DHT22;7454;51.256;8.176;2024-02-14T08:03:51;8.60;84.40
14727;DHT22;7454;51.256;8.176;2024-02-14T08:06:16;8.60;84.30
14727;DHT22;7454;51.256;8.176;2024-02-14T08:08:42;8.60;84.50
14727;DHT22;7454;51.256;8.176;2024-02-14T08:11:09;8.60;84.40
14727;DHT22;7454;51.256;8.176;2024-02-14T08:13:35;8.70;84.50
14727;DHT22;7454;51.256;8.176;2024-02-14T08:16:02;8.70;84.50
14727;DHT22;7454;51.256;8.176;2024-02-14T08:18:28;8.70;84.60
14727;DHT22;7454;51.256;8.176;2024-02-14T08:20:53;8.70;84.70
14727;DHT22;7454;51.256;8.176;2024-02-14T08:23:20;8.70;84.70
14727;DHT22;7454;51.256;8.176;2024-02-14T08:25:45;8.70;84.80
14727;DHT22;7454;51.256;8.176;2024-02-14T08:28:11;8.80;84.90
14727;DHT22;7454;51.256;8.176;2024-02-14T08:30:37;8.80;84.90
14727;DHT22;7454;51.256;8.176;2024-02-14T08:33:04;8.80;84.90
14727;DHT22;7454;51.256;8.176;2024-02-14T08:35:31;8.80;84.80
14727;DHT22;7454;51.256;8.176;2024-02-14T08:37:56;8.80;85.00
14727;DHT22;7454;51.256;8.176;2024-02-14T08:40:22;8.80;84.80
14727;DHT22;7454;51.256;8.176;2024-02-14T08:42:48;8.90;84.80
14727;DHT22;7454;51.256;8.176;2024-02-14T08:45:13;8.90;84.80
14727;DHT22;7454;51.256;8.176;2024-02-14T08:47:39;8.90;84.70
14727;DHT22;7454;51.256;8.176;2024-02-14T08:50:06;8.90;84.60
14727;DHT22;7454;51.256;8.176;2024-02-14T08:52:32;8.90;84.50
14727;DHT22;7454;51.256;8.176;2024-02-14T08:54:57;8.90;84.40
14727;DHT22;7454;51.256;8.176;2024-02-14T08:57:23;8.90;84.60
14727;DHT22;7454;51.256;8.176;2024-02-14T08:59:49;8.90;84.40
14727;DHT22;7454;51.256;8.176;2024-02-14T09:02:16;8.90;84.50
14727;DHT22;7454;51.256;8.176;2024-02-14T09:04:42;8.90;84.70
14727;DHT22;7454;51.256;8.176;2024-02-14T09:07:08;9.00;84.80
14727;DHT22;7454;51.256;8.176;2024-02-14T09:09:33;9.00;84.90
14727;DHT22;7454;51.256;8.176;2024-02-14T09:11:59;9.10;84.90
14727;DHT22;7454;51.256;8.176;2024-02-14T09:14:29;9.10;84.90
14727;DHT22;7454;51.256;8.176;2024-02-14T09:16:56;9.10;85.00
14727;DHT22;7454;51.256;8.176;2024-02-14T09:19:22;9.20;85.10
14727;DHT22;7454;51.256;8.176;2024-02-14T09:21:48;9.20;85.10
14727;DHT22;7454;51.256;8.176;2024-02-14T09:24:14;9.20;85.10
14727;DHT22;7454;51.256;8.176;2024-02-14T09:26:40;9.20;85.00
14727;DHT22;7454;51.256;8.176;2024-02-14T09:29:06;9.20;84.80
14727;DHT22;7454;51.256;8.176;2024-02-14T09:31:31;9.20;84.60
14727;DHT22;7454;51.256;8.176;2024-02-14T09:33:57;9.30;84.70
14727;DHT22;7454;51.256;8.176;2024-02-14T09:36:23;9.30;84.60
14727;DHT22;7454;51.256;8.176;2024-02-14T09:38:51;9.30;84.40
14727;DHT22;7454;51.256;8.176;2024-02-14T09:41:31;9.30;84.20
14727;DHT22;7454;51.256;8.176;2024-02-14T09:43:59;9.30;84.30
14727;DHT22;7454;51.256;8.176;2024-02-14T09:46:24;9.30;84.10
14727;DHT22;7454;51.256;8.176;2024-02-14T09:48:53;9.40;84.40
14727;DHT22;7454;51.256;8.176;2024-02-14T09:51:19;9.40;84.50
14727;DHT22;7454;51.256;8.176;2024-02-14T09:53:45;9.40;84.40
14727;DHT22;7454;51.256;8.176;2024-02-14T09:56:11;9.40;84.40
14727;DHT22;7454;51.256;8.176;2024-02-14T09:58:37;9.40;84.50
14727;DHT22;7454;51.256;8.176;2024-02-14T10:01:03;9.40;84.10
14727;DHT22;7454;51.256;8.176;2024-02-14T10:03:30;9.40;83.90
14727;DHT22;7454;51.256;8.176;2024-02-14T10:05:56;9.50;84.00
14727;DHT22;7454;51.256;8.176;2024-02-14T10:08:22;9.50;83.80
14727;DHT22;7454;51.256;8.176;2024-02-14T10:10:48;9.50;84.00
14727;DHT22;7454;51.256;8.176;2024-02-14T10:13:15;9.50;84.10
14727;DHT22;7454;51.256;8.176;2024-02-14T10:15:41;9.60;84.00
14727;DHT22;7454;51.256;8.176;2024-02-14T10:18:07;9.60;83.80
14727;DHT22;7454;51.256;8.176;2024-02-14T10:20:35;9.60;83.80
14727;DHT22;7454;51.256;8.176;2024-02-14T10:23:07;9.70;83.80
14727;DHT22;7454;51.256;8.176;2024-02-14T10:25:36;9.70;83.60
14727;DHT22;7454;51.256;8.176;2024-02-14T10:28:07;9.70;83.80
14727;DHT22;7454;51.256;8.176;2024-02-14T10:30:36;9.70;83.60
14727;DHT22;7454;51.256;8.176;2024-02-14T10:33:05;9.70;83.70
14727;DHT22;7454;51.256;8.176;2024-02-14T10:35:32;9.70;83.50
14727;DHT22;7454;51.256;8.176;2024-02-14T10:38:01;9.70;83.70
14727;DHT22;7454;51.256;8.176;2024-02-14T10:40:28;9.80;83.60
14727;DHT22;7454;51.256;8.176;2024-02-14T10:42:57;9.80;83.60
14727;DHT22;7454;51.256;8.176;2024-02-14T10:45:26;9.80;83.60
14727;DHT22;7454;51.256;8.176;2024-02-14T10:47:52;9.80;83.50
14727;DHT22;7454;51.256;8.176;2024-02-14T10:50:20;9.80;83.40
14727;DHT22;7454;51.256;8.176;2024-02-14T10:52:46;9.80;83.40
14727;DHT22;7454;51.256;8.176;2024-02-14T10:55:14;9.80;83.50
14727;DHT22;7454;51.256;8.176;2024-02-14T10:57:42;9.80;83.40
14727;DHT22;7454;51.256;8.176;2024-02-14T11:00:09;9.90;83.50
14727;DHT22;7454;51.256;8.176;2024-02-14T11:02:36;9.90;83.50
14727;DHT22;7454;51.256;8.176;2024-02-14T11:05:02;9.90;83.30
14727;DHT22;7454;51.256;8.176;2024-02-14T11:07:28;10.00;83.40
14727;DHT22;7454;51.256;8.176;2024-02-14T11:12:37;9.90;83.30
14727;DHT22;7454;51.256;8.176;2024-02-14T11:15:20;10.00;83.40
14727;DHT22;7454;51.256;8.176;2024-02-14T11:17:48;10.10;83.60
14727;DHT22;7454;51.256;8.176;2024-02-14T11:20:20;10.10;83.60
14727;DHT22;7454;51.256;8.176;2024-02-14T11:22:56;10.20;83.40
14727;DHT22;7454;51.256;8.176;2024-02-14T11:25:24;10.20;83.40
14727;DHT22;7454;51.256;8.176;2024-02-14T11:27:55;10.30;83.60
14727;DHT22;7454;51.256;8.176;2024-02-14T11:30:30;10.40;83.40
14727;DHT22;7454;51.256;8.176;2024-02-14T11:33:30;10.40;83.20
14727;DHT22;7454;51.256;8.176;2024-02-14T11:35:52;10.50;83.20
14727;DHT22;7454;51.256;8.176;2024-02-14T11:38:20;10.60;83.30
14727;DHT22;7454;51.256;8.176;2024-02-14T11:40:46;10.60;83.10
14727;DHT22;7454;51.256;8.176;2024-02-14T11:43:18;10.70;83.20
14727;DHT22;7454;51.256;8.176;2024-02-14T11:45:48;10.90;83.30
14727;DHT22;7454;51.256;8.176;2024-02-14T11:48:18;10.90;83.00
14727;DHT22;7454;51.256;8.176;2024-02-14T11:50:46;10.90;82.90
14727;DHT22;7454;51.256;8.176;2024-02-14T11:53:12;10.90;82.80
14727;DHT22;7454;51.256;8.176;2024-02-14T11:55:40;10.90;82.60
14727;DHT22;7454;51.256;8.176;2024-02-14T11:58:09;10.90;82.50
14727;DHT22;7454;51.256;8.176;2024-02-14T12:00:39;10.90;82.60
14727;DHT22;7454;51.256;8.176;2024-02-14T12:03:06;10.90;82.70
14727;DHT22;7454;51.256;8.176;2024-02-14T12:05:33;10.90;82.70
14727;DHT22;7454;51.256;8.176;2024-02-14T12:08:00;11.00;82.70
14727;DHT22;7454;51.256;8.176;2024-02-14T12:10:26;11.00;82.70
14727;DHT22;7454;51.256;8.176;2024-02-14T12:12:52;11.00;82.70
14727;DHT22;7454;51.256;8.176;2024-02-14T12:15:17;11.00;82.70
14727;DHT22;7454;51.256;8.176;2024-02-14T12:17:47;11.00;82.80
14727;DHT22;7454;51.256;8.176;2024-02-14T12:20:14;11.00;82.80
14727;DHT22;7454;51.256;8.176;2024-02-14T12:22:41;11.10;82.90
14727;DHT22;7454;51.256;8.176;2024-02-14T12:25:07;11.00;82.80
14727;DHT22;7454;51.256;8.176;2024-02-14T12:27:33;11.00;82.90
14727;DHT22;7454;51.256;8.176;2024-02-14T12:30:03;11.00;83.10
14727;DHT22;7454;51.256;8.176;2024-02-14T12:32:29;11.00;82.90
14727;DHT22;7454;51.256;8.176;2024-02-14T12:34:55;11.10;83.20
14727;DHT22;7454;51.256;8.176;2024-02-14T12:37:22;11.10;83.30
14727;DHT22;7454;51.256;8.176;2024-02-14T12:39:48;11.00;83.00
14727;DHT22;7454;51.256;8.176;2024-02-14T12:42:14;11.10;83.00
14727;DHT22;7454;51.256;8.176;2024-02-14T12:44:40;11.00;83.10
14727;DHT22;7454;51.256;8.176;2024-02-14T12:47:06;11.00;83.00
14727;DHT22;7454;51.256;8.176;2024-02-14T12:49:33;11.00;83.00
14727;DHT22;7454;51.256;8.176;2024-02-14T12:51:59;11.00;83.00
14727;DHT22;7454;51.256;8.176;2024-02-14T12:54:25;10.90;83.00
14727;DHT22;7454;51.256;8.176;2024-02-14T12:56:51;10.90;83.00
14727;DHT22;7454;51.256;8.176;2024-02-14T12:59:17;10.90;83.00
14727;DHT22;7454;51.256;8.176;2024-02-14T13:01:44;10.90;83.00
14727;DHT22;7454;51.256;8.176;2024-02-14T13:04:10;10.90;83.20
14727;DHT22;7454;51.256;8.176;2024-02-14T13:06:37;11.00;83.10
14727;DHT22;7454;51.256;8.176;2024-02-14T13:09:03;11.00;83.10
14727;DHT22;7454;51.256;8.176;2024-02-14T13:11:31;10.90;83.10
14727;DHT22;7454;51.256;8.176;2024-02-14T13:13:57;10.90;83.00
14727;DHT22;7454;51.256;8.176;2024-02-14T13:16:23;11.00;83.10
14727;DHT22;7454;51.256;8.176;2024-02-14T13:18:49;10.90;83.00
14727;DHT22;7454;51.256;8.176;2024-02-14T13:21:15;10.90;82.90
14727;DHT22;7454;51.256;8.176;2024-02-14T13:23:42;10.90;82.90
14727;DHT22;7454;51.256;8.176;2024-02-14T13:26:08;10.90;82.90
14727;DHT22;7454;51.256;8.176;2024-02-14T13:28:34;10.80;83.00
14727;DHT22;7454;51.256;8.176;2024-02-14T13:31:00;10.90;83.00
14727;DHT22;7454;51.256;8.176;2024-02-14T13:33:26;10.90;83.10
14727;DHT22;7454;51.256;8.176;2024-02-14T13:35:51;10.90;82.90
14727;DHT22;7454;51.256;8.176;2024-02-14T13:38:17;10.90;83.10
14727;DHT22;7454;51.256;8.176;2024-02-14T13:40:43;10.90;83.10
14727;DHT22;7454;51.256;8.176;2024-02-14T13:43:09;10.90;82.90
14727;DHT22;7454;51.256;8.176;2024-02-14T13:45:45;10.90;82.90
14727;DHT22;7454;51.256;8.176;2024-02-14T13:48:13;10.90;82.80
14727;DHT22;7454;51.256;8.176;2024-02-14T13:50:39;10.90;82.70
14727;DHT22;7454;51.256;8.176;2024-02-14T13:53:06;10.90;82.80
14727;DHT22;7454;51.256;8.176;2024-02-14T13:55:32;10.90;82.90
14727;DHT22;7454;51.256;8.176;2024-02-14T13:57:57;10.90;83.00
14727;DHT22;7454;51.256;8.176;2024-02-14T14:00:23;10.90;82.90
14727;DHT22;7454;51.256;8.176;2024-02-14T14:02:49;10.90;82.90
14727;DHT22;7454;51.256;8.176;2024-02-14T14:05:14;10.90;83.00
14727;DHT22;7454;51.256;8.176;2024-02-14T14:07:40;10.90;83.10
14727;DHT22;7454;51.256;8.176;2024-02-14T14:10:06;10.90;83.20
14727;DHT22;7454;51.256;8.176;2024-02-14T14:12:33;10.90;83.40
14727;DHT22;7454;51.256;8.176;2024-02-14T14:15:01;11.00;83.60
14727;DHT22;7454;51.256;8.176;2024-02-14T14:17:27;10.90;83.40
14727;DHT22;7454;51.256;8.176;2024-02-14T14:19:53;10.90;83.40
14727;DHT22;7454;51.256;8.176;2024-02-14T14:22:19;10.90;83.40
14727;DHT22;7454;51.256;8.176;2024-02-14T14:24:45;10.90;83.60
14727;DHT22;7454;51.256;8.176;2024-02-14T14:27:10;11.00;83.70
14727;DHT22;7454;51.256;8.176;2024-02-14T14:29:40;10.90;83.60
14727;DHT22;7454;51.256;8.176;2024-02-14T14:32:09;10.90;84.00
14727;DHT22;7454;51.256;8.176;2024-02-14T14:34:35;11.00;84.10
14727;DHT22;7454;51.256;8.176;2024-02-14T14:37:04;11.00;84.10
14727;DHT22;7454;51.256;8.176;2024-02-14T14:39:31;11.00;84.20
14727;DHT22;7454;51.256;8.176;2024-02-14T14:41:57;10.90;84.10
14727;DHT22;7454;51.256;8.176;2024-02-14T14:44:24;11.00;84.50
14727;DHT22;7454;51.256;8.176;2024-02-14T14:46:50;10.90;84.30
14727;DHT22;7454;51.256;8.176;2024-02-14T14:49:16;10.90;84.30
14727;DHT22;7454;51.256;8.176;2024-02-14T14:51:42;10.90;84.20
14727;DHT22;7454;51.256;8.176;2024-02-14T14:54:08;10.90;84.20
14727;DHT22;7454;51.256;8.176;2024-02-14T14:56:34;10.90;84.10
14727;DHT22;7454;51.256;8.176;2024-02-14T14:59:00;10.90;84.30
14727;DHT22;7454;51.256;8.176;2024-02-14T15:01:29;10.90;84.00
14727;DHT22;7454;51.256;8.176;2024-02-14T15:03:55;10.90;84.00
14727;DHT22;7454;51.256;8.176;2024-02-14T15:06:21;10.90;84.10
14727;DHT22;7454;51.256;8.176;2024-02-14T15:08:47;10.90;84.20
14727;DHT22;7454;51.256;8.176;2024-02-14T15:11:14;10.90;84.30
14727;DHT22;7454;51.256;8.176;2024-02-14T15:13:42;10.90;84.20
14727;DHT22;7454;51.256;8.176;2024-02-14T15:16:09;10.90;84.10
14727;DHT22;7454;51.256;8.176;2024-02-14T15:18:36;10.90;84.10
14727;DHT22;7454;51.256;8.176;2024-02-14T15:21:01;10.80;84.10
14727;DHT22;7454;51.256;8.176;2024-02-14T15:23:28;10.90;84.10
14727;DHT22;7454;51.256;8.176;2024-02-14T15:25:54;10.90;84.00
14727;DHT22;7454;51.256;8.176;2024-02-14T15:28:28;10.90;84.00
14727;DHT22;7454;51.256;8.176;2024-02-14T15:30:58;10.90;84.00
14727;DHT22;7454;51.256;8.176;2024-02-14T15:33:43;10.90;84.10
14727;DHT22;7454;51.256;8.176;2024-02-14T15:36:09;10.90;84.00
14727;DHT22;7454;51.256;8.176;2024-02-14T15:38:35;10.90;83.90
14727;DHT22;7454;51.256;8.176;2024-02-14T15:41:01;10.90;83.90
14727;DHT22;7454;51.256;8.176;2024-02-14T15:43:28;10.90;83.90
14727;DHT22;7454;51.256;8.176;2024-02-14T15:45:54;10.90;83.90
14727;DHT22;7454;51.256;8.176;2024-02-14T15:48:20;10.80;83.80
14727;DHT22;7454;51.256;8.176;2024-02-14T15:50:46;10.90;83.90
14727;DHT22;7454;51.256;8.176;2024-02-14T15:53:13;10.90;83.90
14727;DHT22;7454;51.256;8.176;2024-02-14T15:55:39;10.80;83.80